sensor_id;sensor_type;location;lat;lon;timestamp;P1;durP1;ratioP1;P2;durP2;ratioP2
6358;SDS011;3212;51.460;11.868;2022-08-26T00:00:21;15.30;;;10.60;;
6358;SDS011;3212;51.460;11.868;2022-08-26T00:03:43;21.63;;;9.50;;
6358;SDS011;3212;51.460;11.868;2022-08-26T00:07:06;18.00;;;9.87;;
6358;SDS011;3212;51.460;11.868;2022-08-26T00:10:29;19.80;;;10.03;;
6358;SDS011;3212;51.460;11.868;2022-08-26T00:13:52;17.23;;;10.17;;
6358;SDS011;3212;51.460;11.868;2022-08-26T00:17:14;14.07;;;9.90;;
6358;SDS011;3212;51.460;11.868;2022-08-26T00:20:38;20.03;;;10.43;;
6358;SDS011;3212;51.460;11.868;2022-08-26T00:24:00;17.20;;;10.03;;
6358;SDS011;3212;51.460;11.868;2022-08-26T00:27:22;15.17;;;10.17;;
6358;SDS011;3212;51.460;11.868;2022-08-26T00:30:45;19.67;;;9.80;;
6358;SDS011;3212;51.460;11.868;2022-08-26T00:34:08;17.30;;;11.13;;
6358;SDS011;3212;51.460;11.868;2022-08-26T00:37:31;23.07;;;10.53;;
6358;SDS011;3212;51.460;11.868;2022-08-26T00:40:54;20.03;;;10.47;;
6358;SDS011;3212;51.460;11.868;2022-08-26T00:44:16;19.10;;;9.90;;
6358;SDS011;3212;51.460;11.868;2022-08-26T00:47:41;19.90;;;10.53;;
6358;SDS011;3212;51.460;11.868;2022-08-26T00:51:03;22.10;;;11.07;;
6358;SDS011;3212;51.460;11.868;2022-08-26T00:54:24;17.53;;;10.53;;
6358;SDS011;3212;51.460;11.868;2022-08-26T00:57:47;22.87;;;11.10;;
6358;SDS011;3212;51.460;11.868;2022-08-26T01:01:10;21.83;;;10.47;;
6358;SDS011;3212;51.460;11.868;2022-08-26T01:04:33;20.57;;;10.80;;
6358;SDS011;3212;51.460;11.868;2022-08-26T01:07:55;15.70;;;9.50;;
6358;SDS011;3212;51.460;11.868;2022-08-26T01:11:18;21.03;;;9.77;;
6358;SDS011;3212;51.460;11.868;2022-08-26T01:14:40;20.60;;;10.33;;
6358;SDS011;3212;51.460;11.868;2022-08-26T01:18:03;20.00;;;10.00;;
6358;SDS011;3212;51.460;11.868;2022-08-26T01:21:28;23.50;;;11.23;;
6358;SDS011;3212;51.460;11.868;2022-08-26T01:24:50;22.90;;;11.10;;
6358;SDS011;3212;51.460;11.868;2022-08-26T01:28:14;19.00;;;10.73;;
6358;SDS011;3212;51.460;11.868;2022-08-26T01:31:37;16.65;;;9.88;;
6358;SDS011;3212;51.460;11.868;2022-08-26T01:34:58;23.73;;;11.10;;
6358;SDS011;3212;51.460;11.868;2022-08-26T01:38:20;22.60;;;11.03;;
6358;SDS011;3212;51.460;11.868;2022-08-26T01:41:43;21.77;;;11.20;;
6358;SDS011;3212;51.460;11.868;2022-08-26T01:45:09;23.60;;;11.70;;
6358;SDS011;3212;51.460;11.868;2022-08-26T01:48:33;22.70;;;11.43;;
6358;SDS011;3212;51.460;11.868;2022-08-26T01:51:55;25.30;;;12.40;;
6358;SDS011;3212;51.460;11.868;2022-08-26T01:55:17;25.20;;;12.53;;
6358;SDS011;3212;51.460;11.868;2022-08-26T01:58:42;23.37;;;11.43;;
6358;SDS011;3212;51.460;11.868;2022-08-26T02:02:04;20.33;;;11.20;;
6358;SDS011;3212;51.460;11.868;2022-08-26T02:05:26;22.20;;;11.93;;
6358;SDS011;3212;51.460;11.868;2022-08-26T02:08:51;19.83;;;10.57;;
6358;SDS011;3212;51.460;11.868;2022-08-26T02:12:13;20.10;;;11.10;;
6358;SDS011;3212;51.460;11.868;2022-08-26T02:15:35;26.77;;;11.40;;
6358;SDS011;3212;51.460;11.868;2022-08-26T02:18:57;18.43;;;11.10;;
6358;SDS011;3212;51.460;11.868;2022-08-26T02:22:21;20.13;;;11.60;;
6358;SDS011;3212;51.460;11.868;2022-08-26T02:25:46;18.60;;;10.63;;
6358;SDS011;3212;51.460;11.868;2022-08-26T02:29:10;25.85;;;11.50;;
6358;SDS011;3212;51.460;11.868;2022-08-26T02:32:31;25.17;;;11.57;;
6358;SDS011;3212;51.460;11.868;2022-08-26T02:35:54;22.30;;;12.63;;
6358;SDS011;3212;51.460;11.868;2022-08-26T02:39:17;23.43;;;11.90;;
6358;SDS011;3212;51.460;11.868;2022-08-26T02:42:40;24.10;;;12.20;;
6358;SDS011;3212;51.460;11.868;2022-08-26T02:46:03;26.40;;;12.90;;
6358;SDS011;3212;51.460;11.868;2022-08-26T02:49:25;21.03;;;11.63;;
6358;SDS011;3212;51.460;11.868;2022-08-26T02:52:48;18.57;;;11.70;;
6358;SDS011;3212;51.460;11.868;2022-08-26T02:56:11;19.20;;;11.93;;
6358;SDS011;3212;51.460;11.868;2022-08-26T02:59:33;21.40;;;12.50;;
6358;SDS011;3212;51.460;11.868;2022-08-26T03:02:57;21.90;;;12.30;;
6358;SDS011;3212;51.460;11.868;2022-08-26T03:06:19;21.03;;;12.53;;
6358;SDS011;3212;51.460;11.868;2022-08-26T03:09:42;20.80;;;12.47;;
6358;SDS011;3212;51.460;11.868;2022-08-26T03:13:04;24.37;;;11.63;;
6358;SDS011;3212;51.460;11.868;2022-08-26T03:16:29;22.93;;;12.30;;
6358;SDS011;3212;51.460;11.868;2022-08-26T03:19:50;22.57;;;12.87;;
6358;SDS011;3212;51.460;11.868;2022-08-26T03:23:13;23.30;;;11.80;;
6358;SDS011;3212;51.460;11.868;2022-08-26T03:26:36;29.23;;;12.20;;
6358;SDS011;3212;51.460;11.868;2022-08-26T03:29:59;29.23;;;12.67;;
6358;SDS011;3212;51.460;11.868;2022-08-26T03:33:27;24.33;;;12.20;;
6358;SDS011;3212;51.460;11.868;2022-08-26T03:36:50;26.33;;;13.70;;
6358;SDS011;3212;51.460;11.868;2022-08-26T03:40:13;20.83;;;13.10;;
6358;SDS011;3212;51.460;11.868;2022-08-26T03:43:36;24.30;;;13.27;;
6358;SDS011;3212;51.460;11.868;2022-08-26T03:46:59;25.93;;;13.50;;
6358;SDS011;3212;51.460;11.868;2022-08-26T03:50:22;30.37;;;14.60;;
6358;SDS011;3212;51.460;11.868;2022-08-26T03:53:44;24.57;;;14.57;;
6358;SDS011;3212;51.460;11.868;2022-08-26T03:57:07;25.20;;;14.07;;
6358;SDS011;3212;51.460;11.868;2022-08-26T04:00:30;29.90;;;14.20;;
6358;SDS011;3212;51.460;11.868;2022-08-26T04:03:53;29.13;;;14.63;;
6358;SDS011;3212;51.460;11.868;2022-08-26T04:07:18;24.30;;;12.87;;
6358;SDS011;3212;51.460;11.868;2022-08-26T04:10:41;29.60;;;14.40;;
6358;SDS011;3212;51.460;11.868;2022-08-26T04:14:06;26.10;;;13.50;;
6358;SDS011;3212;51.460;11.868;2022-08-26T04:17:27;19.87;;;12.50;;
6358;SDS011;3212;51.460;11.868;2022-08-26T04:20:49;24.37;;;14.80;;
6358;SDS011;3212;51.460;11.868;2022-08-26T04:24:13;23.93;;;13.27;;
6358;SDS011;3212;51.460;11.868;2022-08-26T04:27:35;24.73;;;13.90;;
6358;SDS011;3212;51.460;11.868;2022-08-26T04:30:57;25.43;;;14.27;;
6358;SDS011;3212;51.460;11.868;2022-08-26T04:34:20;28.57;;;14.40;;
6358;SDS011;3212;51.460;11.868;2022-08-26T04:37:44;25.67;;;13.93;;
6358;SDS011;3212;51.460;11.868;2022-08-26T04:41:08;26.60;;;15.33;;
6358;SDS011;3212;51.460;11.868;2022-08-26T04:44:30;22.20;;;13.57;;
6358;SDS011;3212;51.460;11.868;2022-08-26T04:47:54;24.17;;;15.63;;
6358;SDS011;3212;51.460;11.868;2022-08-26T04:51:17;23.67;;;13.50;;
6358;SDS011;3212;51.460;11.868;2022-08-26T04:54:38;25.23;;;13.57;;
6358;SDS011;3212;51.460;11.868;2022-08-26T04:58:01;25.57;;;14.40;;
6358;SDS011;3212;51.460;11.868;2022-08-26T05:01:24;29.07;;;14.53;;
6358;SDS011;3212;51.460;11.868;2022-08-26T05:04:46;25.70;;;13.60;;
6358;SDS011;3212;51.460;11.868;2022-08-26T05:08:09;19.70;;;13.03;;
6358;SDS011;3212;51.460;11.868;2022-08-26T05:11:32;23.73;;;13.50;;
6358;SDS011;3212;51.460;11.868;2022-08-26T05:14:55;28.07;;;13.87;;
6358;SDS011;3212;51.460;11.868;2022-08-26T05:18:19;22.77;;;13.90;;
6358;SDS011;3212;51.460;11.868;2022-08-26T05:21:41;27.87;;;13.23;;
6358;SDS011;3212;51.460;11.868;2022-08-26T05:25:04;26.43;;;15.07;;
6358;SDS011;3212;51.460;11.868;2022-08-26T05:28:27;27.23;;;13.90;;
6358;SDS011;3212;51.460;11.868;2022-08-26T05:31:50;28.70;;;14.87;;
6358;SDS011;3212;51.460;11.868;2022-08-26T05:35:12;36.33;;;15.80;;
6358;SDS011;3212;51.460;11.868;2022-08-26T05:38:35;20.70;;;14.57;;
6358;SDS011;3212;51.460;11.868;2022-08-26T05:41:57;30.97;;;15.23;;
6358;SDS011;3212;51.460;11.868;2022-08-26T05:45:20;22.83;;;14.10;;
6358;SDS011;3212;51.460;11.868;2022-08-26T05:48:43;26.43;;;14.30;;
6358;SDS011;3212;51.460;11.868;2022-08-26T05:52:06;24.90;;;14.10;;
6358;SDS011;3212;51.460;11.868;2022-08-26T05:55:29;28.47;;;14.83;;
6358;SDS011;3212;51.460;11.868;2022-08-26T05:58:52;24.07;;;12.90;;
6358;SDS011;3212;51.460;11.868;2022-08-26T06:02:15;21.40;;;12.87;;
6358;SDS011;3212;51.460;11.868;2022-08-26T06:05:38;20.30;;;13.37;;
6358;SDS011;3212;51.460;11.868;2022-08-26T06:09:02;21.77;;;12.13;;
6358;SDS011;3212;51.460;11.868;2022-08-26T06:12:23;18.57;;;12.97;;
6358;SDS011;3212;51.460;11.868;2022-08-26T06:15:47;29.00;;;14.13;;
6358;SDS011;3212;51.460;11.868;2022-08-26T06:19:10;21.20;;;13.80;;
6358;SDS011;3212;51.460;11.868;2022-08-26T06:22:31;23.47;;;14.37;;
6358;SDS011;3212;51.460;11.868;2022-08-26T06:26:03;20.20;;;13.37;;
6358;SDS011;3212;51.460;11.868;2022-08-26T06:29:29;19.40;;;13.40;;
6358;SDS011;3212;51.460;11.868;2022-08-26T06:32:50;24.33;;;13.80;;
6358;SDS011;3212;51.460;11.868;2022-08-26T06:36:15;23.33;;;13.27;;
6358;SDS011;3212;51.460;11.868;2022-08-26T06:39:37;19.80;;;12.23;;
6358;SDS011;3212;51.460;11.868;2022-08-26T06:43:00;24.90;;;12.10;;
6358;SDS011;3212;51.460;11.868;2022-08-26T06:46:24;26.37;;;13.10;;
6358;SDS011;3212;51.460;11.868;2022-08-26T06:49:46;20.77;;;12.03;;
6358;SDS011;3212;51.460;11.868;2022-08-26T06:53:09;28.43;;;12.47;;
6358;SDS011;3212;51.460;11.868;2022-08-26T06:56:33;23.40;;;12.13;;
6358;SDS011;3212;51.460;11.868;2022-08-26T06:59:54;20.00;;;13.17;;
6358;SDS011;3212;51.460;11.868;2022-08-26T07:03:17;22.03;;;12.23;;
6358;SDS011;3212;51.460;11.868;2022-08-26T07:06:39;20.30;;;13.00;;
6358;SDS011;3212;51.460;11.868;2022-08-26T07:10:01;21.40;;;12.83;;
6358;SDS011;3212;51.460;11.868;2022-08-26T07:13:24;26.57;;;13.63;;
6358;SDS011;3212;51.460;11.868;2022-08-26T07:16:46;24.03;;;12.90;;
6358;SDS011;3212;51.460;11.868;2022-08-26T07:20:09;22.63;;;12.27;;
6358;SDS011;3212;51.460;11.868;2022-08-26T07:23:31;22.40;;;11.10;;
6358;SDS011;3212;51.460;11.868;2022-08-26T07:26:57;17.33;;;11.70;;
6358;SDS011;3212;51.460;11.868;2022-08-26T07:30:16;23.73;;;13.00;;
6358;SDS011;3212;51.460;11.868;2022-08-26T07:33:40;21.73;;;12.93;;
6358;SDS011;3212;51.460;11.868;2022-08-26T07:37:03;19.93;;;13.07;;
6358;SDS011;3212;51.460;11.868;2022-08-26T07:40:25;22.87;;;11.70;;
6358;SDS011;3212;51.460;11.868;2022-08-26T07:43:48;27.50;;;11.97;;
6358;SDS011;3212;51.460;11.868;2022-08-26T07:47:11;25.27;;;11.60;;
6358;SDS011;3212;51.460;11.868;2022-08-26T07:50:34;28.23;;;12.67;;
6358;SDS011;3212;51.460;11.868;2022-08-26T07:53:56;26.97;;;13.80;;
6358;SDS011;3212;51.460;11.868;2022-08-26T07:57:19;22.70;;;12.83;;
6358;SDS011;3212;51.460;11.868;2022-08-26T08:00:42;22.63;;;11.83;;
6358;SDS011;3212;51.460;11.868;2022-08-26T08:04:04;25.87;;;12.00;;
6358;SDS011;3212;51.460;11.868;2022-08-26T08:07:27;19.40;;;11.70;;
6358;SDS011;3212;51.460;11.868;2022-08-26T08:10:49;20.63;;;12.40;;
6358;SDS011;3212;51.460;11.868;2022-08-26T08:14:12;27.47;;;12.70;;
6358;SDS011;3212;51.460;11.868;2022-08-26T08:17:35;17.20;;;12.10;;
6358;SDS011;3212;51.460;11.868;2022-08-26T08:20:57;23.30;;;13.10;;
6358;SDS011;3212;51.460;11.868;2022-08-26T08:24:20;28.43;;;14.40;;
6358;SDS011;3212;51.460;11.868;2022-08-26T08:27:43;23.10;;;13.23;;
6358;SDS011;3212;51.460;11.868;2022-08-26T08:31:05;23.70;;;12.60;;
6358;SDS011;3212;51.460;11.868;2022-08-26T08:34:28;28.77;;;13.90;;
6358;SDS011;3212;51.460;11.868;2022-08-26T08:37:51;25.37;;;13.07;;
6358;SDS011;3212;51.460;11.868;2022-08-26T08:41:21;22.20;;;11.80;;
6358;SDS011;3212;51.460;11.868;2022-08-26T08:44:46;26.53;;;12.80;;
6358;SDS011;3212;51.460;11.868;2022-08-26T08:48:12;27.13;;;13.00;;
6358;SDS011;3212;51.460;11.868;2022-08-26T08:51:44;22.13;;;11.83;;
6358;SDS011;3212;51.460;11.868;2022-08-26T08:55:04;22.80;;;12.43;;
6358;SDS011;3212;51.460;11.868;2022-08-26T08:58:34;24.07;;;11.60;;
6358;SDS011;3212;51.460;11.868;2022-08-26T09:05:23;25.08;;;11.60;;
6358;SDS011;3212;51.460;11.868;2022-08-26T09:08:46;23.03;;;11.70;;
6358;SDS011;3212;51.460;11.868;2022-08-26T09:12:10;19.93;;;10.97;;
6358;SDS011;3212;51.460;11.868;2022-08-26T09:15:38;19.10;;;11.40;;
6358;SDS011;3212;51.460;11.868;2022-08-26T09:19:12;23.30;;;12.03;;
6358;SDS011;3212;51.460;11.868;2022-08-26T09:22:35;26.50;;;11.17;;
6358;SDS011;3212;51.460;11.868;2022-08-26T09:25:59;23.87;;;11.90;;
6358;SDS011;3212;51.460;11.868;2022-08-26T09:29:25;22.47;;;12.23;;
6358;SDS011;3212;51.460;11.868;2022-08-26T09:36:35;23.30;;;10.70;;
6358;SDS011;3212;51.460;11.868;2022-08-26T09:40:09;19.53;;;10.97;;
6358;SDS011;3212;51.460;11.868;2022-08-26T09:43:19;22.33;;;10.97;;
6358;SDS011;3212;51.460;11.868;2022-08-26T09:46:53;17.30;;;10.20;;
6358;SDS011;3212;51.460;11.868;2022-08-26T09:50:23;26.00;;;10.47;;
6358;SDS011;3212;51.460;11.868;2022-08-26T09:53:50;16.63;;;9.60;;
6358;SDS011;3212;51.460;11.868;2022-08-26T09:57:15;16.33;;;8.97;;
6358;SDS011;3212;51.460;11.868;2022-08-26T10:00:41;19.40;;;9.73;;
6358;SDS011;3212;51.460;11.868;2022-08-26T10:07:42;20.60;;;10.03;;
6358;SDS011;3212;51.460;11.868;2022-08-26T10:11:06;22.08;;;9.95;;
6358;SDS011;3212;51.460;11.868;2022-08-26T10:14:28;24.25;;;10.35;;
6358;SDS011;3212;51.460;11.868;2022-08-26T10:17:57;22.23;;;9.85;;
6358;SDS011;3212;51.460;11.868;2022-08-26T10:21:21;17.90;;;9.43;;
6358;SDS011;3212;51.460;11.868;2022-08-26T10:24:44;22.45;;;9.00;;
6358;SDS011;3212;51.460;11.868;2022-08-26T10:28:11;24.08;;;9.30;;
6358;SDS011;3212;51.460;11.868;2022-08-26T10:31:46;14.30;;;8.60;;
6358;SDS011;3212;51.460;11.868;2022-08-26T10:35:06;20.48;;;8.20;;
6358;SDS011;3212;51.460;11.868;2022-08-26T10:38:32;22.42;;;8.55;;
6358;SDS011;3212;51.460;11.868;2022-08-26T10:41:54;18.30;;;7.82;;
6358;SDS011;3212;51.460;11.868;2022-08-26T10:45:17;20.37;;;9.80;;
6358;SDS011;3212;51.460;11.868;2022-08-26T10:48:46;20.55;;;9.77;;
6358;SDS011;3212;51.460;11.868;2022-08-26T10:52:23;19.10;;;8.82;;
6358;SDS011;3212;51.460;11.868;2022-08-26T10:55:47;19.70;;;9.27;;
6358;SDS011;3212;51.460;11.868;2022-08-26T10:59:20;19.50;;;8.93;;
6358;SDS011;3212;51.460;11.868;2022-08-26T11:02:42;15.23;;;8.77;;
6358;SDS011;3212;51.460;11.868;2022-08-26T11:09:41;19.40;;;8.32;;
6358;SDS011;3212;51.460;11.868;2022-08-26T11:13:03;21.98;;;9.20;;
6358;SDS011;3212;51.460;11.868;2022-08-26T11:20:04;16.67;;;7.00;;
6358;SDS011;3212;51.460;11.868;2022-08-26T11:23:35;18.23;;;7.68;;
6358;SDS011;3212;51.460;11.868;2022-08-26T11:26:58;15.43;;;7.35;;
6358;SDS011;3212;51.460;11.868;2022-08-26T11:33:59;10.05;;;7.40;;
6358;SDS011;3212;51.460;11.868;2022-08-26T11:37:30;17.95;;;8.30;;
6358;SDS011;3212;51.460;11.868;2022-08-26T11:40:44;13.77;;;6.93;;
6358;SDS011;3212;51.460;11.868;2022-08-26T11:44:06;14.73;;;8.37;;
6358;SDS011;3212;51.460;11.868;2022-08-26T11:47:30;11.57;;;7.00;;
6358;SDS011;3212;51.460;11.868;2022-08-26T11:50:56;18.25;;;7.28;;
6358;SDS011;3212;51.460;11.868;2022-08-26T11:54:20;12.30;;;7.30;;
6358;SDS011;3212;51.460;11.868;2022-08-26T11:57:46;21.48;;;7.15;;
6358;SDS011;3212;51.460;11.868;2022-08-26T12:01:07;19.77;;;7.80;;
6358;SDS011;3212;51.460;11.868;2022-08-26T12:04:33;17.23;;;7.57;;
6358;SDS011;3212;51.460;11.868;2022-08-26T12:07:53;17.70;;;7.43;;
6358;SDS011;3212;51.460;11.868;2022-08-26T12:11:24;17.30;;;6.60;;
6358;SDS011;3212;51.460;11.868;2022-08-26T12:14:42;11.05;;;6.30;;
6358;SDS011;3212;51.460;11.868;2022-08-26T12:21:46;18.50;;;6.87;;
6358;SDS011;3212;51.460;11.868;2022-08-26T12:25:08;14.73;;;6.57;;
6358;SDS011;3212;51.460;11.868;2022-08-26T12:28:30;10.65;;;6.20;;
6358;SDS011;3212;51.460;11.868;2022-08-26T12:35:31;11.95;;;7.07;;
6358;SDS011;3212;51.460;11.868;2022-08-26T12:38:53;18.98;;;7.37;;
6358;SDS011;3212;51.460;11.868;2022-08-26T12:42:38;12.85;;;6.65;;
6358;SDS011;3212;51.460;11.868;2022-08-26T12:46:04;11.10;;;6.82;;
6358;SDS011;3212;51.460;11.868;2022-08-26T12:49:26;15.32;;;6.93;;
6358;SDS011;3212;51.460;11.868;2022-08-26T12:52:52;14.45;;;7.00;;
6358;SDS011;3212;51.460;11.868;2022-08-26T12:56:30;14.65;;;7.22;;
6358;SDS011;3212;51.460;11.868;2022-08-26T12:59:50;10.82;;;6.47;;
6358;SDS011;3212;51.460;11.868;2022-08-26T13:06:47;13.23;;;5.93;;
6358;SDS011;3212;51.460;11.868;2022-08-26T13:10:31;17.58;;;6.45;;
6358;SDS011;3212;51.460;11.868;2022-08-26T13:13:32;12.30;;;6.15;;
6358;SDS011;3212;51.460;11.868;2022-08-26T13:16:55;10.52;;;5.85;;
6358;SDS011;3212;51.460;11.868;2022-08-26T13:20:18;10.85;;;5.37;;
6358;SDS011;3212;51.460;11.868;2022-08-26T13:23:41;12.85;;;5.72;;
6358;SDS011;3212;51.460;11.868;2022-08-26T13:27:04;9.07;;;5.32;;
6358;SDS011;3212;51.460;11.868;2022-08-26T13:30:26;9.73;;;5.05;;
6358;SDS011;3212;51.460;11.868;2022-08-26T13:33:50;7.28;;;5.18;;
6358;SDS011;3212;51.460;11.868;2022-08-26T13:37:12;18.55;;;6.18;;
6358;SDS011;3212;51.460;11.868;2022-08-26T13:40:35;32.80;;;8.55;;
6358;SDS011;3212;51.460;11.868;2022-08-26T13:43:58;28.20;;;8.18;;
6358;SDS011;3212;51.460;11.868;2022-08-26T13:47:20;13.53;;;6.50;;
6358;SDS011;3212;51.460;11.868;2022-08-26T13:50:42;10.60;;;5.90;;
6358;SDS011;3212;51.460;11.868;2022-08-26T13:54:05;15.13;;;6.20;;
6358;SDS011;3212;51.460;11.868;2022-08-26T13:57:28;17.10;;;6.03;;
6358;SDS011;3212;51.460;11.868;2022-08-26T14:00:51;11.13;;;5.00;;
6358;SDS011;3212;51.460;11.868;2022-08-26T14:04:13;11.03;;;5.40;;
6358;SDS011;3212;51.460;11.868;2022-08-26T14:07:36;16.30;;;5.10;;
6358;SDS011;3212;51.460;11.868;2022-08-26T14:10:58;10.03;;;5.13;;
6358;SDS011;3212;51.460;11.868;2022-08-26T14:14:21;14.60;;;5.77;;
6358;SDS011;3212;51.460;11.868;2022-08-26T14:17:44;11.43;;;5.50;;
6358;SDS011;3212;51.460;11.868;2022-08-26T14:21:07;12.97;;;6.20;;
6358;SDS011;3212;51.460;11.868;2022-08-26T14:24:29;11.27;;;6.20;;
6358;SDS011;3212;51.460;11.868;2022-08-26T14:27:52;13.37;;;5.53;;
6358;SDS011;3212;51.460;11.868;2022-08-26T14:31:14;12.60;;;6.20;;
6358;SDS011;3212;51.460;11.868;2022-08-26T14:34:38;15.57;;;6.17;;
6358;SDS011;3212;51.460;11.868;2022-08-26T14:38:00;11.70;;;7.17;;
6358;SDS011;3212;51.460;11.868;2022-08-26T14:41:23;11.50;;;6.87;;
6358;SDS011;3212;51.460;11.868;2022-08-26T14:44:45;11.37;;;6.50;;
6358;SDS011;3212;51.460;11.868;2022-08-26T14:48:08;9.83;;;6.70;;
6358;SDS011;3212;51.460;11.868;2022-08-26T14:51:31;13.60;;;7.97;;
6358;SDS011;3212;51.460;11.868;2022-08-26T14:54:53;14.30;;;7.27;;
6358;SDS011;3212;51.460;11.868;2022-08-26T14:58:16;9.53;;;6.60;;
6358;SDS011;3212;51.460;11.868;2022-08-26T15:01:39;18.33;;;7.57;;
6358;SDS011;3212;51.460;11.868;2022-08-26T15:05:01;10.47;;;6.73;;
6358;SDS011;3212;51.460;11.868;2022-08-26T15:08:23;11.83;;;7.37;;
6358;SDS011;3212;51.460;11.868;2022-08-26T15:11:46;9.27;;;6.70;;
6358;SDS011;3212;51.460;11.868;2022-08-26T15:15:10;9.83;;;7.03;;
6358;SDS011;3212;51.460;11.868;2022-08-26T15:18:32;12.10;;;6.67;;
6358;SDS011;3212;51.460;11.868;2022-08-26T15:21:54;13.10;;;6.67;;
6358;SDS011;3212;51.460;11.868;2022-08-26T15:25:17;12.77;;;6.80;;
6358;SDS011;3212;51.460;11.868;2022-08-26T15:28:40;11.13;;;6.90;;
6358;SDS011;3212;51.460;11.868;2022-08-26T15:32:02;11.97;;;6.57;;
6358;SDS011;3212;51.460;11.868;2022-08-26T15:35:25;11.40;;;7.00;;
6358;SDS011;3212;51.460;11.868;2022-08-26T15:38:47;15.00;;;7.10;;
6358;SDS011;3212;51.460;11.868;2022-08-26T15:42:10;12.83;;;6.90;;
6358;SDS011;3212;51.460;11.868;2022-08-26T15:45:33;11.70;;;7.00;;
6358;SDS011;3212;51.460;11.868;2022-08-26T15:48:56;9.20;;;6.50;;
6358;SDS011;3212;51.460;11.868;2022-08-26T15:52:18;13.30;;;7.63;;
6358;SDS011;3212;51.460;11.868;2022-08-26T15:55:41;12.83;;;7.67;;
6358;SDS011;3212;51.460;11.868;2022-08-26T15:59:04;11.40;;;7.40;;
6358;SDS011;3212;51.460;11.868;2022-08-26T16:02:26;13.03;;;6.77;;
6358;SDS011;3212;51.460;11.868;2022-08-26T16:05:49;22.87;;;9.07;;
6358;SDS011;3212;51.460;11.868;2022-08-26T16:09:11;15.47;;;7.57;;
6358;SDS011;3212;51.460;11.868;2022-08-26T16:12:34;10.93;;;7.20;;
6358;SDS011;3212;51.460;11.868;2022-08-26T16:15:58;14.63;;;6.60;;
6358;SDS011;3212;51.460;11.868;2022-08-26T16:19:20;17.90;;;6.90;;
6358;SDS011;3212;51.460;11.868;2022-08-26T16:22:43;10.70;;;5.67;;
6358;SDS011;3212;51.460;11.868;2022-08-26T16:26:08;13.70;;;7.07;;
6358;SDS011;3212;51.460;11.868;2022-08-26T16:29:29;9.60;;;6.20;;
6358;SDS011;3212;51.460;11.868;2022-08-26T16:32:52;14.23;;;6.83;;
6358;SDS011;3212;51.460;11.868;2022-08-26T16:36:14;9.90;;;6.33;;
6358;SDS011;3212;51.460;11.868;2022-08-26T16:39:37;11.60;;;6.60;;
6358;SDS011;3212;51.460;11.868;2022-08-26T16:43:00;14.23;;;6.20;;
6358;SDS011;3212;51.460;11.868;2022-08-26T16:46:23;12.20;;;6.90;;
6358;SDS011;3212;51.460;11.868;2022-08-26T16:49:45;15.30;;;6.93;;
6358;SDS011;3212;51.460;11.868;2022-08-26T16:53:08;12.03;;;6.60;;
6358;SDS011;3212;51.460;11.868;2022-08-26T16:56:30;11.37;;;6.67;;
6358;SDS011;3212;51.460;11.868;2022-08-26T16:59:53;12.13;;;6.60;;
6358;SDS011;3212;51.460;11.868;2022-08-26T17:03:16;12.00;;;8.63;;
6358;SDS011;3212;51.460;11.868;2022-08-26T17:06:38;17.60;;;10.47;;
6358;SDS011;3212;51.460;11.868;2022-08-26T17:10:01;21.90;;;10.73;;
6358;SDS011;3212;51.460;11.868;2022-08-26T17:13:24;13.20;;;8.20;;
6358;SDS011;3212;51.460;11.868;2022-08-26T17:16:46;10.07;;;6.30;;
6358;SDS011;3212;51.460;11.868;2022-08-26T17:20:10;14.73;;;6.37;;
6358;SDS011;3212;51.460;11.868;2022-08-26T17:23:32;9.17;;;6.00;;
6358;SDS011;3212;51.460;11.868;2022-08-26T17:26:54;11.93;;;6.57;;
6358;SDS011;3212;51.460;11.868;2022-08-26T17:30:17;11.87;;;6.47;;
6358;SDS011;3212;51.460;11.868;2022-08-26T17:33:40;13.43;;;7.27;;
6358;SDS011;3212;51.460;11.868;2022-08-26T17:37:03;15.20;;;7.10;;
6358;SDS011;3212;51.460;11.868;2022-08-26T17:40:26;10.60;;;6.70;;
6358;SDS011;3212;51.460;11.868;2022-08-26T17:43:51;15.13;;;7.30;;
6358;SDS011;3212;51.460;11.868;2022-08-26T17:47:13;19.53;;;10.10;;
6358;SDS011;3212;51.460;11.868;2022-08-26T17:50:37;19.30;;;9.03;;
6358;SDS011;3212;51.460;11.868;2022-08-26T17:53:59;15.20;;;7.00;;
6358;SDS011;3212;51.460;11.868;2022-08-26T17:57:22;11.50;;;6.33;;
6358;SDS011;3212;51.460;11.868;2022-08-26T18:00:47;14.03;;;6.73;;
6358;SDS011;3212;51.460;11.868;2022-08-26T18:04:07;9.93;;;5.90;;
6358;SDS011;3212;51.460;11.868;2022-08-26T18:07:30;11.53;;;7.10;;
6358;SDS011;3212;51.460;11.868;2022-08-26T18:10:53;14.53;;;7.77;;
6358;SDS011;3212;51.460;11.868;2022-08-26T18:14:16;15.63;;;7.10;;
6358;SDS011;3212;51.460;11.868;2022-08-26T18:17:39;11.77;;;6.37;;
6358;SDS011;3212;51.460;11.868;2022-08-26T18:21:02;12.50;;;6.30;;
6358;SDS011;3212;51.460;11.868;2022-08-26T18:24:24;8.93;;;6.37;;
6358;SDS011;3212;51.460;11.868;2022-08-26T18:27:46;10.47;;;6.33;;
6358;SDS011;3212;51.460;11.868;2022-08-26T18:31:09;12.77;;;6.23;;
6358;SDS011;3212;51.460;11.868;2022-08-26T18:34:32;10.90;;;6.23;;
6358;SDS011;3212;51.460;11.868;2022-08-26T18:37:55;9.17;;;6.87;;
6358;SDS011;3212;51.460;11.868;2022-08-26T18:41:18;11.37;;;6.60;;
6358;SDS011;3212;51.460;11.868;2022-08-26T18:44:39;10.90;;;6.67;;
6358;SDS011;3212;51.460;11.868;2022-08-26T18:48:03;9.30;;;6.03;;
6358;SDS011;3212;51.460;11.868;2022-08-26T18:51:27;12.80;;;6.30;;
6358;SDS011;3212;51.460;11.868;2022-08-26T18:54:48;12.07;;;6.10;;
6358;SDS011;3212;51.460;11.868;2022-08-26T18:58:10;9.17;;;6.13;;
6358;SDS011;3212;51.460;11.868;2022-08-26T19:01:34;9.40;;;6.70;;
6358;SDS011;3212;51.460;11.868;2022-08-26T19:04:56;9.87;;;6.20;;
6358;SDS011;3212;51.460;11.868;2022-08-26T19:08:20;12.83;;;6.47;;
6358;SDS011;3212;51.460;11.868;2022-08-26T19:11:44;9.17;;;6.80;;
6358;SDS011;3212;51.460;11.868;2022-08-26T19:15:07;12.60;;;7.20;;
6358;SDS011;3212;51.460;11.868;2022-08-26T19:18:30;9.47;;;6.97;;
6358;SDS011;3212;51.460;11.868;2022-08-26T19:21:52;12.40;;;7.13;;
6358;SDS011;3212;51.460;11.868;2022-08-26T19:25:15;12.40;;;7.20;;
6358;SDS011;3212;51.460;11.868;2022-08-26T19:28:38;14.37;;;7.87;;
6358;SDS011;3212;51.460;11.868;2022-08-26T19:32:01;15.53;;;7.73;;
6358;SDS011;3212;51.460;11.868;2022-08-26T19:35:23;9.43;;;6.73;;
6358;SDS011;3212;51.460;11.868;2022-08-26T19:38:47;13.57;;;7.10;;
6358;SDS011;3212;51.460;11.868;2022-08-26T19:42:09;12.90;;;7.80;;
6358;SDS011;3212;51.460;11.868;2022-08-26T19:45:31;16.00;;;6.70;;
6358;SDS011;3212;51.460;11.868;2022-08-26T19:48:54;12.60;;;6.70;;
6358;SDS011;3212;51.460;11.868;2022-08-26T19:52:17;14.73;;;6.67;;
6358;SDS011;3212;51.460;11.868;2022-08-26T19:55:40;13.30;;;7.03;;
6358;SDS011;3212;51.460;11.868;2022-08-26T19:59:02;12.83;;;6.60;;
6358;SDS011;3212;51.460;11.868;2022-08-26T20:02:25;12.50;;;8.10;;
6358;SDS011;3212;51.460;11.868;2022-08-26T20:05:48;13.10;;;7.00;;
6358;SDS011;3212;51.460;11.868;2022-08-26T20:09:10;15.30;;;7.40;;
6358;SDS011;3212;51.460;11.868;2022-08-26T20:12:32;11.63;;;6.93;;
6358;SDS011;3212;51.460;11.868;2022-08-26T20:15:56;12.40;;;6.90;;
6358;SDS011;3212;51.460;11.868;2022-08-26T20:19:19;11.87;;;7.20;;
6358;SDS011;3212;51.460;11.868;2022-08-26T20:22:47;14.03;;;7.23;;
6358;SDS011;3212;51.460;11.868;2022-08-26T20:26:09;15.40;;;7.67;;
6358;SDS011;3212;51.460;11.868;2022-08-26T20:29:32;10.17;;;7.20;;
6358;SDS011;3212;51.460;11.868;2022-08-26T20:32:55;9.83;;;7.50;;
6358;SDS011;3212;51.460;11.868;2022-08-26T20:36:18;13.30;;;7.30;;
6358;SDS011;3212;51.460;11.868;2022-08-26T20:39:40;13.70;;;8.27;;
6358;SDS011;3212;51.460;11.868;2022-08-26T20:43:03;12.60;;;6.70;;
6358;SDS011;3212;51.460;11.868;2022-08-26T20:46:25;13.57;;;8.80;;
6358;SDS011;3212;51.460;11.868;2022-08-26T20:49:48;15.20;;;8.70;;